sensor_id;sensor_type;location;lat;lon;timestamp;pressure;altitude;pressure_sealevel;temperature;humidity
10652;BME280;5374;42.742;23.266;2023-05-07T00:00:52;95664.34;;;10.78;100.00
10652;BME280;5374;42.742;23.266;2023-05-07T00:03:40;95659.69;;;10.68;100.00
10652;BME280;5374;42.742;23.266;2023-05-07T00:06:27;95659.28;;;10.76;100.00
10652;BME280;5374;42.742;23.266;2023-05-07T00:09:14;95660.75;;;10.67;100.00
10652;BME280;5374;42.742;23.266;2023-05-07T00:12:04;95655.13;;;10.63;100.00
10652;BME280;5374;42.742;23.266;2023-05-07T00:14:51;95665.44;;;10.60;100.00
10652;BME280;5374;42.742;23.266;2023-05-07T00:17:38;95657.97;;;10.57;100.00
10652;BME280;5374;42.742;23.266;2023-05-07T00:20:27;95658.44;;;10.54;100.00
10652;BME280;5374;42.742;23.266;2023-05-07T00:23:14;95654.66;;;10.50;100.00
10652;BME280;5374;42.742;23.266;2023-05-07T00:26:01;95657.78;;;10.47;100.00
10652;BME280;5374;42.742;23.266;2023-05-07T00:28:50;95659.88;;;10.45;100.00
10652;BME280;5374;42.742;23.266;2023-05-07T00:31:37;95655.63;;;10.44;100.00
10652;BME280;5374;42.742;23.266;2023-05-07T00:34:24;95664.88;;;10.41;100.00
10652;BME280;5374;42.742;23.266;2023-05-07T00:37:11;95668.03;;;10.38;100.00
10652;BME280;5374;42.742;23.266;2023-05-07T00:39:58;95669.09;;;10.37;100.00
10652;BME280;5374;42.742;23.266;2023-05-07T00:42:45;95657.91;;;10.35;100.00
10652;BME280;5374;42.742;23.266;2023-05-07T00:45:37;95656.44;;;10.27;100.00
10652;BME280;5374;42.742;23.266;2023-05-07T00:48:24;95665.53;;;10.32;100.00
10652;BME280;5374;42.742;23.266;2023-05-07T00:51:12;95670.75;;;10.26;100.00
10652;BME280;5374;42.742;23.266;2023-05-07T00:54:00;95666.75;;;10.24;100.00
10652;BME280;5374;42.742;23.266;2023-05-07T00:56:48;95666.41;;;10.20;100.00
10652;BME280;5374;42.742;23.266;2023-05-07T00:59:35;95665.00;;;10.18;100.00
10652;BME280;5374;42.742;23.266;2023-05-07T01:02:24;95666.31;;;10.15;100.00
10652;BME280;5374;42.742;23.266;2023-05-07T01:05:14;95662.31;;;10.13;100.00
10652;BME280;5374;42.742;23.266;2023-05-07T01:08:04;95674.44;;;10.09;100.00
10652;BME280;5374;42.742;23.266;2023-05-07T01:10:52;95670.97;;;10.08;100.00
10652;BME280;5374;42.742;23.266;2023-05-07T01:13:40;95677.81;;;10.04;100.00
10652;BME280;5374;42.742;23.266;2023-05-07T01:16:28;95680.13;;;10.01;100.00
10652;BME280;5374;42.742;23.266;2023-05-07T01:19:17;95654.88;;;9.81;100.00
10652;BME280;5374;42.742;23.266;2023-05-07T01:22:08;95680.59;;;9.98;100.00
10652;BME280;5374;42.742;23.266;2023-05-07T01:24:57;95681.63;;;9.97;100.00
10652;BME280;5374;42.742;23.266;2023-05-07T01:27:45;95649.81;;;9.80;100.00
10652;BME280;5374;42.742;23.266;2023-05-07T01:30:33;95674.97;;;9.94;100.00
10652;BME280;5374;42.742;23.266;2023-05-07T01:33:21;95670.72;;;9.93;100.00
10652;BME280;5374;42.742;23.266;2023-05-07T01:36:09;95669.13;;;9.92;100.00
10652;BME280;5374;42.742;23.266;2023-05-07T01:38:57;95658.66;;;9.85;100.00
10652;BME280;5374;42.742;23.266;2023-05-07T01:41:46;95668.56;;;9.90;100.00
10652;BME280;5374;42.742;23.266;2023-05-07T01:44:36;95658.41;;;9.87;100.00
10652;BME280;5374;42.742;23.266;2023-05-07T01:47:24;95638.22;;;9.69;100.00
10652;BME280;5374;42.742;23.266;2023-05-07T01:50:12;95662.81;;;9.81;100.00
10652;BME280;5374;42.742;23.266;2023-05-07T01:53:01;95667.00;;;9.77;100.00
10652;BME280;5374;42.742;23.266;2023-05-07T01:55:48;95669.06;;;9.75;100.00
10652;BME280;5374;42.742;23.266;2023-05-07T01:58:36;95657.34;;;9.71;100.00
10652;BME280;5374;42.742;23.266;2023-05-07T02:01:24;95660.00;;;9.71;100.00
10652;BME280;5374;42.742;23.266;2023-05-07T02:04:11;95658.88;;;9.67;100.00
10652;BME280;5374;42.742;23.266;2023-05-07T02:06:58;95656.34;;;9.60;100.00
10652;BME280;5374;42.742;23.266;2023-05-07T02:09:45;95650.72;;;9.57;100.00
10652;BME280;5374;42.742;23.266;2023-05-07T02:12:32;95646.13;;;9.52;100.00
10652;BME280;5374;42.742;23.266;2023-05-07T02:15:21;95653.44;;;9.45;100.00
10652;BME280;5374;42.742;23.266;2023-05-07T02:18:12;95640.09;;;9.40;100.00
10652;BME280;5374;42.742;23.266;2023-05-07T02:20:59;95642.41;;;9.37;100.00
10652;BME280;5374;42.742;23.266;2023-05-07T02:23:46;95644.47;;;9.35;100.00
10652;BME280;5374;42.742;23.266;2023-05-07T02:26:33;95653.69;;;9.32;100.00
10652;BME280;5374;42.742;23.266;2023-05-07T02:29:20;95644.38;;;9.30;100.00
10652;BME280;5374;42.742;23.266;2023-05-07T02:32:12;95655.13;;;9.23;100.00
10652;BME280;5374;42.742;23.266;2023-05-07T02:34:59;95632.97;;;9.01;100.00
10652;BME280;5374;42.742;23.266;2023-05-07T02:37:46;95644.94;;;9.03;100.00
10652;BME280;5374;42.742;23.266;2023-05-07T02:40:33;95653.66;;;9.04;100.00
10652;BME280;5374;42.742;23.266;2023-05-07T02:43:24;95655.19;;;9.00;100.00
10652;BME280;5374;42.742;23.266;2023-05-07T02:46:11;95643.00;;;8.87;100.00
10652;BME280;5374;42.742;23.266;2023-05-07T02:48:59;95654.19;;;8.89;100.00
10652;BME280;5374;42.742;23.266;2023-05-07T02:51:46;95650.97;;;8.75;100.00
10652;BME280;5374;42.742;23.266;2023-05-07T02:54:33;95659.38;;;8.72;100.00
10652;BME280;5374;42.742;23.266;2023-05-07T02:57:21;95613.25;;;8.45;100.00
10652;BME280;5374;42.742;23.266;2023-05-07T03:00:12;95666.75;;;8.70;100.00
10652;BME280;5374;42.742;23.266;2023-05-07T03:03:00;95670.91;;;8.66;100.00
10652;BME280;5374;42.742;23.266;2023-05-07T03:05:48;95643.75;;;8.47;100.00
10652;BME280;5374;42.742;23.266;2023-05-07T03:08:35;95669.50;;;8.64;100.00
10652;BME280;5374;42.742;23.266;2023-05-07T03:11:23;95677.44;;;8.64;100.00
10652;BME280;5374;42.742;23.266;2023-05-07T03:14:10;95676.66;;;8.63;100.00
10652;BME280;5374;42.742;23.266;2023-05-07T03:16:57;95663.31;;;8.58;100.00
10652;BME280;5374;42.742;23.266;2023-05-07T03:19:45;95655.03;;;8.43;100.00
10652;BME280;5374;42.742;23.266;2023-05-07T03:22:33;95685.16;;;8.65;100.00
10652;BME280;5374;42.742;23.266;2023-05-07T03:25:20;95679.41;;;8.68;100.00
10652;BME280;5374;42.742;23.266;2023-05-07T03:28:07;95684.25;;;8.71;100.00
10652;BME280;5374;42.742;23.266;2023-05-07T03:30:54;95689.31;;;8.73;100.00
10652;BME280;5374;42.742;23.266;2023-05-07T03:33:50;95676.78;;;8.80;100.00
10652;BME280;5374;42.742;23.266;2023-05-07T03:36:37;95684.34;;;8.88;100.00
10652;BME280;5374;42.742;23.266;2023-05-07T03:39:26;95687.44;;;8.97;100.00
10652;BME280;5374;42.742;23.266;2023-05-07T03:42:13;95688.09;;;9.04;100.00
10652;BME280;5374;42.742;23.266;2023-05-07T03:45:00;95683.25;;;9.12;100.00
10652;BME280;5374;42.742;23.266;2023-05-07T03:47:47;95685.09;;;9.23;100.00
10652;BME280;5374;42.742;23.266;2023-05-07T03:50:34;95688.25;;;9.37;100.00
10652;BME280;5374;42.742;23.266;2023-05-07T03:53:21;95692.81;;;9.53;100.00
10652;BME280;5374;42.742;23.266;2023-05-07T03:56:10;95686.41;;;10.11;100.00
10652;BME280;5374;42.742;23.266;2023-05-07T03:58:57;95695.72;;;11.41;100.00
10652;BME280;5374;42.742;23.266;2023-05-07T04:01:44;95697.34;;;12.87;100.00
10652;BME280;5374;42.742;23.266;2023-05-07T04:04:31;95703.69;;;14.00;81.43
10652;BME280;5374;42.742;23.266;2023-05-07T04:07:18;95708.19;;;15.32;70.70
10652;BME280;5374;42.742;23.266;2023-05-07T04:10:06;95713.94;;;16.58;62.81
10652;BME280;5374;42.742;23.266;2023-05-07T04:12:55;95717.06;;;17.52;58.79
10652;BME280;5374;42.742;23.266;2023-05-07T04:15:42;95723.16;;;18.24;55.62
10652;BME280;5374;42.742;23.266;2023-05-07T04:18:30;95732.06;;;18.75;53.70
10652;BME280;5374;42.742;23.266;2023-05-07T04:21:19;95739.41;;;19.35;51.01
10652;BME280;5374;42.742;23.266;2023-05-07T04:24:07;95739.28;;;20.22;48.88
10652;BME280;5374;42.742;23.266;2023-05-07T04:26:54;95749.75;;;21.18;46.34
10652;BME280;5374;42.742;23.266;2023-05-07T04:29:42;95762.81;;;21.95;44.31
10652;BME280;5374;42.742;23.266;2023-05-07T04:32:32;95757.06;;;22.54;42.55
10652;BME280;5374;42.742;23.266;2023-05-07T04:35:19;95756.13;;;23.01;41.53
10652;BME280;5374;42.742;23.266;2023-05-07T04:38:07;95753.06;;;23.75;39.88
10652;BME280;5374;42.742;23.266;2023-05-07T04:40:54;95757.56;;;24.80;37.67
10652;BME280;5374;42.742;23.266;2023-05-07T04:43:41;95721.22;;;25.39;36.10
10652;BME280;5374;42.742;23.266;2023-05-07T04:46:30;95769.63;;;26.39;34.85
10652;BME280;5374;42.742;23.266;2023-05-07T04:49:17;95768.16;;;27.22;33.37
10652;BME280;5374;42.742;23.266;2023-05-07T04:52:04;95760.50;;;28.03;32.41
10652;BME280;5374;42.742;23.266;2023-05-07T04:54:51;95758.88;;;29.03;31.18
10652;BME280;5374;42.742;23.266;2023-05-07T04:57:39;95760.84;;;29.87;29.64
10652;BME280;5374;42.742;23.266;2023-05-07T05:00:27;95756.38;;;30.47;28.83
10652;BME280;5374;42.742;23.266;2023-05-07T05:03:15;95767.41;;;31.11;28.32
10652;BME280;5374;42.742;23.266;2023-05-07T05:06:03;95765.00;;;31.73;27.38
10652;BME280;5374;42.742;23.266;2023-05-07T05:08:50;95766.06;;;32.56;26.43
10652;BME280;5374;42.742;23.266;2023-05-07T05:11:37;95748.78;;;33.28;25.93
10652;BME280;5374;42.742;23.266;2023-05-07T05:14:25;95741.81;;;33.77;25.47
10652;BME280;5374;42.742;23.266;2023-05-07T05:17:12;95746.91;;;34.85;24.73
10652;BME280;5374;42.742;23.266;2023-05-07T05:20:01;95745.53;;;35.25;23.67
10652;BME280;5374;42.742;23.266;2023-05-07T05:22:48;95736.94;;;35.09;23.81
10652;BME280;5374;42.742;23.266;2023-05-07T05:25:35;95730.44;;;35.51;23.42
10652;BME280;5374;42.742;23.266;2023-05-07T05:28:23;95735.59;;;36.56;22.83
10652;BME280;5374;42.742;23.266;2023-05-07T05:31:10;95735.28;;;37.22;22.35
10652;BME280;5374;42.742;23.266;2023-05-07T05:33:57;95713.59;;;37.44;22.04
10652;BME280;5374;42.742;23.266;2023-05-07T05:36:46;95730.16;;;37.17;22.33
10652;BME280;5374;42.742;23.266;2023-05-07T05:39:33;95735.66;;;36.49;22.45
10652;BME280;5374;42.742;23.266;2023-05-07T05:42:20;95742.38;;;35.38;24.00
10652;BME280;5374;42.742;23.266;2023-05-07T05:45:09;95734.69;;;34.69;24.20
10652;BME280;5374;42.742;23.266;2023-05-07T05:47:56;95733.16;;;33.89;24.66
10652;BME280;5374;42.742;23.266;2023-05-07T05:50:43;95730.97;;;32.98;26.44
10652;BME280;5374;42.742;23.266;2023-05-07T05:53:32;95729.19;;;32.10;27.47
10652;BME280;5374;42.742;23.266;2023-05-07T05:56:19;95728.94;;;31.78;28.22
10652;BME280;5374;42.742;23.266;2023-05-07T05:59:06;95741.28;;;31.20;28.47
10652;BME280;5374;42.742;23.266;2023-05-07T06:01:54;95726.53;;;30.69;29.40
10652;BME280;5374;42.742;23.266;2023-05-07T06:04:41;95736.59;;;30.35;30.63
10652;BME280;5374;42.742;23.266;2023-05-07T06:07:28;95731.16;;;29.89;30.06
10652;BME280;5374;42.742;23.266;2023-05-07T06:10:17;95724.34;;;29.56;31.23
10652;BME280;5374;42.742;23.266;2023-05-07T06:13:04;95724.34;;;28.95;31.83
10652;BME280;5374;42.742;23.266;2023-05-07T06:15:51;95722.56;;;28.48;33.05
10652;BME280;5374;42.742;23.266;2023-05-07T06:18:43;95719.16;;;28.36;33.75
10652;BME280;5374;42.742;23.266;2023-05-07T06:21:32;95726.59;;;28.04;33.72
10652;BME280;5374;42.742;23.266;2023-05-07T06:24:19;95724.56;;;27.85;33.99
10652;BME280;5374;42.742;23.266;2023-05-07T06:27:07;95697.53;;;27.33;35.16
10652;BME280;5374;42.742;23.266;2023-05-07T06:29:55;95707.56;;;27.44;35.22
10652;BME280;5374;42.742;23.266;2023-05-07T06:32:42;95710.31;;;27.60;35.61
10652;BME280;5374;42.742;23.266;2023-05-07T06:35:29;95694.38;;;27.31;34.99
10652;BME280;5374;42.742;23.266;2023-05-07T06:38:17;95715.56;;;27.37;34.54
10652;BME280;5374;42.742;23.266;2023-05-07T06:41:05;95697.09;;;27.31;35.25
10652;BME280;5374;42.742;23.266;2023-05-07T06:43:54;95698.03;;;27.22;36.02
10652;BME280;5374;42.742;23.266;2023-05-07T06:46:41;95679.88;;;27.14;35.40
10652;BME280;5374;42.742;23.266;2023-05-07T06:49:28;95683.22;;;26.80;36.20
10652;BME280;5374;42.742;23.266;2023-05-07T06:52:16;95686.47;;;26.98;36.33
10652;BME280;5374;42.742;23.266;2023-05-07T06:55:03;95687.56;;;27.09;36.01
10652;BME280;5374;42.742;23.266;2023-05-07T06:57:51;95701.31;;;27.28;35.94
10652;BME280;5374;42.742;23.266;2023-05-07T07:00:40;95697.16;;;27.18;37.01
10652;BME280;5374;42.742;23.266;2023-05-07T07:03:27;95702.13;;;27.01;36.26
10652;BME280;5374;42.742;23.266;2023-05-07T07:06:14;95672.69;;;26.26;37.40
10652;BME280;5374;42.742;23.266;2023-05-07T07:09:01;95678.91;;;26.51;38.04
10652;BME280;5374;42.742;23.266;2023-05-07T07:11:48;95685.19;;;26.67;37.12
10652;BME280;5374;42.742;23.266;2023-05-07T07:14:35;95680.00;;;26.62;36.98
10652;BME280;5374;42.742;23.266;2023-05-07T07:17:24;95674.16;;;27.04;36.62
10652;BME280;5374;42.742;23.266;2023-05-07T07:20:11;95670.59;;;27.31;37.41
10652;BME280;5374;42.742;23.266;2023-05-07T07:22:58;95673.44;;;27.66;35.64
10652;BME280;5374;42.742;23.266;2023-05-07T07:25:46;95676.16;;;27.66;35.96
10652;BME280;5374;42.742;23.266;2023-05-07T07:28:33;95673.94;;;27.87;36.01
10652;BME280;5374;42.742;23.266;2023-05-07T07:31:20;95659.19;;;28.08;34.80
10652;BME280;5374;42.742;23.266;2023-05-07T07:34:09;95632.03;;;27.96;35.03
10652;BME280;5374;42.742;23.266;2023-05-07T07:36:56;95676.19;;;28.17;34.04
10652;BME280;5374;42.742;23.266;2023-05-07T07:39:43;95670.38;;;28.18;35.30
10652;BME280;5374;42.742;23.266;2023-05-07T07:42:30;95678.69;;;28.22;35.75
10652;BME280;5374;42.742;23.266;2023-05-07T07:45:18;95684.72;;;28.31;35.45
10652;BME280;5374;42.742;23.266;2023-05-07T07:48:05;95685.72;;;28.23;35.84
10652;BME280;5374;42.742;23.266;2023-05-07T07:50:54;95682.09;;;28.19;34.04
10652;BME280;5374;42.742;23.266;2023-05-07T07:53:41;95682.84;;;28.00;34.36
10652;BME280;5374;42.742;23.266;2023-05-07T07:56:29;95679.72;;;28.02;34.87
10652;BME280;5374;42.742;23.266;2023-05-07T07:59:16;95665.50;;;27.92;37.13
10652;BME280;5374;42.742;23.266;2023-05-07T08:02:04;95671.47;;;27.98;34.51
10652;BME280;5374;42.742;23.266;2023-05-07T08:04:51;95678.19;;;27.69;35.48
10652;BME280;5374;42.742;23.266;2023-05-07T08:07:40;95666.53;;;27.41;37.32
10652;BME280;5374;42.742;23.266;2023-05-07T08:10:29;95669.81;;;27.46;34.89
10652;BME280;5374;42.742;23.266;2023-05-07T08:13:20;95673.81;;;27.05;34.97
10652;BME280;5374;42.742;23.266;2023-05-07T08:19:44;95667.38;;;26.98;35.62
10652;BME280;5374;42.742;23.266;2023-05-07T08:22:33;95655.75;;;26.73;37.31
10652;BME280;5374;42.742;23.266;2023-05-07T08:25:22;95661.97;;;26.85;36.60
10652;BME280;5374;42.742;23.266;2023-05-07T08:28:09;95652.81;;;26.94;37.27
10652;BME280;5374;42.742;23.266;2023-05-07T08:30:56;95651.72;;;26.95;38.67
10652;BME280;5374;42.742;23.266;2023-05-07T08:33:52;95640.47;;;26.96;37.83
10652;BME280;5374;42.742;23.266;2023-05-07T08:36:46;95608.56;;;26.69;36.48
10652;BME280;5374;42.742;23.266;2023-05-07T08:39:37;95642.91;;;26.85;36.27
10652;BME280;5374;42.742;23.266;2023-05-07T08:42:40;95599.25;;;26.70;36.31
10652;BME280;5374;42.742;23.266;2023-05-07T08:45:50;95616.94;;;26.76;36.60
10652;BME280;5374;42.742;23.266;2023-05-07T08:48:51;95639.16;;;26.78;36.87
10652;BME280;5374;42.742;23.266;2023-05-07T08:51:50;95580.00;;;26.22;36.60
10652;BME280;5374;42.742;23.266;2023-05-07T08:54:43;95626.78;;;26.80;38.41
10652;BME280;5374;42.742;23.266;2023-05-07T08:57:30;95627.97;;;26.95;36.49
10652;BME280;5374;42.742;23.266;2023-05-07T09:00:19;95627.69;;;26.84;34.18
10652;BME280;5374;42.742;23.266;2023-05-07T09:03:06;95630.75;;;26.83;34.50
10652;BME280;5374;42.742;23.266;2023-05-07T09:05:53;95630.06;;;26.30;36.30
10652;BME280;5374;42.742;23.266;2023-05-07T09:08:40;95621.66;;;26.63;34.88
10652;BME280;5374;42.742;23.266;2023-05-07T09:11:27;95613.50;;;26.79;32.73
10652;BME280;5374;42.742;23.266;2023-05-07T09:14:14;95614.41;;;26.83;33.74
10652;BME280;5374;42.742;23.266;2023-05-07T09:17:07;95608.75;;;26.76;32.83
10652;BME280;5374;42.742;23.266;2023-05-07T09:20:05;95602.59;;;26.79;34.95
10652;BME280;5374;42.742;23.266;2023-05-07T09:23:08;95607.25;;;26.78;35.40
10652;BME280;5374;42.742;23.266;2023-05-07T09:26:06;95602.41;;;26.72;34.20
10652;BME280;5374;42.742;23.266;2023-05-07T09:29:10;95604.16;;;26.64;34.13
10652;BME280;5374;42.742;23.266;2023-05-07T09:31:57;95598.88;;;26.55;34.01
10652;BME280;5374;42.742;23.266;2023-05-07T09:34:47;95605.66;;;26.62;33.23
10652;BME280;5374;42.742;23.266;2023-05-07T09:37:34;95594.69;;;26.46;33.16
10652;BME280;5374;42.742;23.266;2023-05-07T09:40:23;95584.00;;;26.53;33.44
10652;BME280;5374;42.742;23.266;2023-05-07T09:43:11;95599.91;;;26.11;35.62
10652;BME280;5374;42.742;23.266;2023-05-07T09:46:02;95591.00;;;26.26;33.01
10652;BME280;5374;42.742;23.266;2023-05-07T09:48:52;95575.63;;;26.18;33.36
10652;BME280;5374;42.742;23.266;2023-05-07T09:51:47;95582.72;;;25.95;33.49
10652;BME280;5374;42.742;23.266;2023-05-07T09:54:36;95581.19;;;26.09;32.68
10652;BME280;5374;42.742;23.266;2023-05-07T09:57:23;95576.94;;;26.24;31.09
10652;BME280;5374;42.742;23.266;2023-05-07T10:00:12;95575.00;;;26.24;32.02
10652;BME280;5374;42.742;23.266;2023-05-07T10:03:01;95585.09;;;26.36;32.50
10652;BME280;5374;42.742;23.266;2023-05-07T10:05:50;95579.03;;;26.71;33.69
10652;BME280;5374;42.742;23.266;2023-05-07T10:08:40;95571.69;;;26.87;34.89
10652;BME280;5374;42.742;23.266;2023-05-07T10:11:28;95569.09;;;27.06;33.92
10652;BME280;5374;42.742;23.266;2023-05-07T10:14:15;95550.19;;;26.70;31.22
10652;BME280;5374;42.742;23.266;2023-05-07T10:17:02;95566.81;;;26.65;31.53
10652;BME280;5374;42.742;23.266;2023-05-07T10:19:55;95556.34;;;26.67;31.41
10652;BME280;5374;42.742;23.266;2023-05-07T10:22:46;95550.72;;;26.60;31.38
10652;BME280;5374;42.742;23.266;2023-05-07T10:29:02;95551.38;;;26.01;32.14
10652;BME280;5374;42.742;23.266;2023-05-07T10:32:14;95534.50;;;26.35;32.24
10652;BME280;5374;42.742;23.266;2023-05-07T10:35:09;95540.00;;;26.67;31.44
10652;BME280;5374;42.742;23.266;2023-05-07T10:37:57;95535.28;;;26.79;30.30
10652;BME280;5374;42.742;23.266;2023-05-07T10:40:44;95533.16;;;26.73;29.41
10652;BME280;5374;42.742;23.266;2023-05-07T10:43:42;95532.16;;;26.49;31.74
10652;BME280;5374;42.742;23.266;2023-05-07T10:46:30;95543.69;;;26.59;30.17
10652;BME280;5374;42.742;23.266;2023-05-07T10:49:20;95532.91;;;26.34;31.46
10652;BME280;5374;42.742;23.266;2023-05-07T10:52:12;95529.38;;;26.06;32.36
10652;BME280;5374;42.742;23.266;2023-05-07T10:55:20;95530.19;;;26.34;31.00
10652;BME280;5374;42.742;23.266;2023-05-07T10:58:22;95523.81;;;26.42;30.95
10652;BME280;5374;42.742;23.266;2023-05-07T11:01:10;95496.16;;;26.28;29.85
10652;BME280;5374;42.742;23.266;2023-05-07T11:04:16;95527.56;;;26.38;30.34
10652;BME280;5374;42.742;23.266;2023-05-07T11:07:27;95520.19;;;26.38;31.25
10652;BME280;5374;42.742;23.266;2023-05-07T11:10:15;95519.06;;;26.27;30.92
10652;BME280;5374;42.742;23.266;2023-05-07T11:13:02;95529.25;;;26.42;31.37
10652;BME280;5374;42.742;23.266;2023-05-07T11:15:50;95522.25;;;26.57;31.31
10652;BME280;5374;42.742;23.266;2023-05-07T11:18:47;95523.47;;;26.75;31.32
10652;BME280;5374;42.742;23.266;2023-05-07T11:21:38;95514.09;;;26.88;29.74
10652;BME280;5374;42.742;23.266;2023-05-07T11:24:25;95507.91;;;26.91;32.44
10652;BME280;5374;42.742;23.266;2023-05-07T11:27:13;95504.00;;;27.05;31.76
10652;BME280;5374;42.742;23.266;2023-05-07T11:30:00;95505.91;;;27.20;30.77
10652;BME280;5374;42.742;23.266;2023-05-07T11:32:56;95488.00;;;27.03;31.21
10652;BME280;5374;42.742;23.266;2023-05-07T11:35:43;95498.50;;;26.58;32.21
10652;BME280;5374;42.742;23.266;2023-05-07T11:38:34;95496.06;;;26.84;29.92
10652;BME280;5374;42.742;23.266;2023-05-07T11:41:22;95496.59;;;26.58;29.54
10652;BME280;5374;42.742;23.266;2023-05-07T11:44:09;95493.84;;;26.74;29.07
10652;BME280;5374;42.742;23.266;2023-05-07T11:46:56;95479.34;;;26.38;30.12
10652;BME280;5374;42.742;23.266;2023-05-07T11:49:46;95487.44;;;26.50;29.86
10652;BME280;5374;42.742;23.266;2023-05-07T11:52:34;95492.34;;;26.45;30.82
10652;BME280;5374;42.742;23.266;2023-05-07T11:55:24;95501.59;;;26.56;30.63
10652;BME280;5374;42.742;23.266;2023-05-07T11:58:12;95486.13;;;26.76;29.89
10652;BME280;5374;42.742;23.266;2023-05-07T12:01:00;95470.50;;;26.88;28.83
10652;BME280;5374;42.742;23.266;2023-05-07T12:03:47;95493.06;;;27.20;28.05
10652;BME280;5374;42.742;23.266;2023-05-07T12:06:36;95477.19;;;27.07;28.76
10652;BME280;5374;42.742;23.266;2023-05-07T12:09:24;95485.59;;;27.17;29.57
10652;BME280;5374;42.742;23.266;2023-05-07T12:12:14;95477.56;;;26.30;30.81
10652;BME280;5374;42.742;23.266;2023-05-07T12:15:03;95472.22;;;26.34;31.01
10652;BME280;5374;42.742;23.266;2023-05-07T12:17:50;95471.53;;;26.52;28.85
10652;BME280;5374;42.742;23.266;2023-05-07T12:20:38;95464.25;;;26.56;28.79
10652;BME280;5374;42.742;23.266;2023-05-07T12:23:26;95470.38;;;26.53;30.50
10652;BME280;5374;42.742;23.266;2023-05-07T12:26:13;95448.34;;;26.59;29.01
10652;BME280;5374;42.742;23.266;2023-05-07T12:29:02;95458.69;;;26.69;29.71
10652;BME280;5374;42.742;23.266;2023-05-07T12:31:50;95448.25;;;26.71;28.54
10652;BME280;5374;42.742;23.266;2023-05-07T12:34:37;95460.63;;;26.84;28.40
10652;BME280;5374;42.742;23.266;2023-05-07T12:37:25;95444.63;;;26.67;29.02
10652;BME280;5374;42.742;23.266;2023-05-07T12:40:14;95449.66;;;26.65;29.04
10652;BME280;5374;42.742;23.266;2023-05-07T12:43:01;95448.69;;;26.73;28.65
10652;BME280;5374;42.742;23.266;2023-05-07T12:45:51;95438.03;;;26.68;29.08
10652;BME280;5374;42.742;23.266;2023-05-07T12:48:43;95433.84;;;26.86;29.64
10652;BME280;5374;42.742;23.266;2023-05-07T12:51:33;95415.00;;;26.97;29.57
10652;BME280;5374;42.742;23.266;2023-05-07T12:54:28;95423.28;;;27.00;27.85
10652;BME280;5374;42.742;23.266;2023-05-07T12:57:19;95420.19;;;26.86;28.77
10652;BME280;5374;42.742;23.266;2023-05-07T13:00:07;95423.63;;;26.83;28.24
10652;BME280;5374;42.742;23.266;2023-05-07T13:02:58;95406.59;;;26.54;28.80
10652;BME280;5374;42.742;23.266;2023-05-07T13:05:45;95418.34;;;26.74;28.98
10652;BME280;5374;42.742;23.266;2023-05-07T13:08:34;95421.44;;;26.88;29.20
10652;BME280;5374;42.742;23.266;2023-05-07T13:11:22;95412.47;;;26.88;29.66
10652;BME280;5374;42.742;23.266;2023-05-07T13:14:10;95412.75;;;26.51;30.47
10652;BME280;5374;42.742;23.266;2023-05-07T13:16:57;95403.00;;;26.35;29.44
10652;BME280;5374;42.742;23.266;2023-05-07T13:19:46;95404.13;;;26.49;29.37
10652;BME280;5374;42.742;23.266;2023-05-07T13:22:34;95406.28;;;26.12;30.11
10652;BME280;5374;42.742;23.266;2023-05-07T13:25:24;95389.31;;;25.87;30.26
10652;BME280;5374;42.742;23.266;2023-05-07T13:28:12;95400.50;;;25.98;30.10
10652;BME280;5374;42.742;23.266;2023-05-07T13:30:59;95393.13;;;26.14;29.33
10652;BME280;5374;42.742;23.266;2023-05-07T13:33:46;95385.50;;;26.20;29.83
10652;BME280;5374;42.742;23.266;2023-05-07T13:36:35;95387.44;;;26.35;29.92
10652;BME280;5374;42.742;23.266;2023-05-07T13:42:37;95386.38;;;26.71;28.75
10652;BME280;5374;42.742;23.266;2023-05-07T13:45:24;95379.19;;;26.47;28.65
10652;BME280;5374;42.742;23.266;2023-05-07T13:48:12;95391.31;;;26.66;29.02
10652;BME280;5374;42.742;23.266;2023-05-07T13:50:59;95391.81;;;26.71;29.56
10652;BME280;5374;42.742;23.266;2023-05-07T13:53:48;95383.28;;;26.73;28.85
10652;BME280;5374;42.742;23.266;2023-05-07T13:56:36;95394.19;;;26.73;28.41
10652;BME280;5374;42.742;23.266;2023-05-07T13:59:23;95386.47;;;26.59;28.69
10652;BME280;5374;42.742;23.266;2023-05-07T14:02:10;95392.44;;;26.80;29.49
10652;BME280;5374;42.742;23.266;2023-05-07T14:04:57;95402.06;;;26.94;29.60
10652;BME280;5374;42.742;23.266;2023-05-07T14:07:45;95396.16;;;26.91;29.50
10652;BME280;5374;42.742;23.266;2023-05-07T14:10:34;95401.97;;;26.90;29.42
10652;BME280;5374;42.742;23.266;2023-05-07T14:13:21;95405.00;;;26.69;30.26
10652;BME280;5374;42.742;23.266;2023-05-07T14:16:08;95402.38;;;26.57;30.55
10652;BME280;5374;42.742;23.266;2023-05-07T14:18:55;95396.16;;;26.41;28.94
10652;BME280;5374;42.742;23.266;2023-05-07T14:21:43;95388.16;;;26.32;29.37
10652;BME280;5374;42.742;23.266;2023-05-07T14:24:30;95390.88;;;26.32;29.73
10652;BME280;5374;42.742;23.266;2023-05-07T14:27:18;95376.84;;;26.02;30.06
10652;BME280;5374;42.742;23.266;2023-05-07T14:30:06;95388.28;;;26.08;30.19
10652;BME280;5374;42.742;23.266;2023-05-07T14:32:54;95378.78;;;26.02;31.03
10652;BME280;5374;42.742;23.266;2023-05-07T14:35:41;95380.00;;;25.88;31.60
10652;BME280;5374;42.742;23.266;2023-05-07T14:38:33;95364.38;;;25.85;32.06
10652;BME280;5374;42.742;23.266;2023-05-07T14:41:20;95362.94;;;25.76;31.50
10652;BME280;5374;42.742;23.266;2023-05-07T14:44:09;95381.59;;;25.89;31.65
10652;BME280;5374;42.742;23.266;2023-05-07T14:46:56;95376.19;;;25.77;31.19
10652;BME280;5374;42.742;23.266;2023-05-07T14:49:43;95366.44;;;25.76;30.93
10652;BME280;5374;42.742;23.266;2023-05-07T14:52:30;95365.25;;;25.74;31.40
10652;BME280;5374;42.742;23.266;2023-05-07T14:55:17;95367.66;;;25.63;31.41
10652;BME280;5374;42.742;23.266;2023-05-07T14:58:04;95362.31;;;25.67;31.46
10652;BME280;5374;42.742;23.266;2023-05-07T15:00:53;95367.94;;;25.46;32.05
10652;BME280;5374;42.742;23.266;2023-05-07T15:03:40;95373.31;;;25.30;31.84